createdAt,value
2022-12-23T00:11:17.772Z,142.91
2022-12-23T04:43:57.551Z,129.53
2022-12-23T05:58:22.099Z,127.49
2022-12-23T06:08:59.194Z,125.74
2022-12-23T06:11:50.703Z,126.07
2022-12-23T06:16:01.145Z,125.24
2022-12-23T06:19:36.591Z,124.72
2022-12-23T06:24:31.098Z,124.00
2022-12-23T06:31:25.855Z,123.70
2022-12-23T06:35:36.183Z,123.70
2022-12-23T06:41:55.023Z,123.94
2022-12-23T06:46:38.776Z,123.21
2022-12-23T06:52:23.483Z,123.14
2022-12-23T06:56:52.507Z,123.10
2022-12-23T07:01:11.882Z,122.97
2022-12-23T07:09:11.917Z,123.00
2022-12-23T07:13:12.443Z,122.62
2022-12-23T07:17:21.807Z,122.07
2022-12-23T07:21:55.332Z,121.80
2022-12-23T07:28:46.785Z,121.56
2022-12-23T07:32:10.717Z,121.24
2022-12-23T07:37:03.045Z,119.53
2022-12-23T07:40:19.768Z,119.17
2022-12-23T07:44:08.991Z,118.56
2022-12-23T07:49:11.420Z,117.26
2022-12-23T07:54:53.330Z,115.91
2022-12-23T07:58:42.452Z,115.57
2022-12-23T08:03:35.196Z,115.35
2022-12-23T08:09:24.096Z,115.84
2022-12-23T08:26:33.578Z,117.94
2022-12-23T08:29:39.559Z,118.09
2022-12-23T08:34:51.757Z,117.99
2022-12-23T08:42:49.336Z,115.58
2022-12-23T08:49:55.142Z,116.58
2022-12-23T08:59:42.735Z,116.59
2022-12-23T09:02:34.439Z,117.15
2022-12-23T09:05:20.074Z,117.31
2022-12-23T09:09:17.493Z,116.14
2022-12-23T09:13:49.213Z,116.81
2022-12-23T09:18:33.562Z,116.15
2022-12-23T09:23:04.623Z,116.14
2022-12-23T09:26:50.968Z,117.01
2022-12-23T09:31:20.413Z,117.22
2022-12-23T09:36:43.550Z,117.96
2022-12-23T09:39:48.436Z,118.50
2022-12-23T09:49:53.084Z,118.44
2022-12-23T10:06:47.437Z,119.86
2022-12-23T10:12:42.717Z,120.78
2022-12-23T10:17:10.517Z,120.68
2022-12-23T10:21:18.587Z,120.55
2022-12-23T10:24:23.740Z,120.60
2022-12-23T10:32:19.752Z,120.28
2022-12-23T10:35:26.597Z,120.32
2022-12-23T10:40:08.042Z,121.80
2022-12-23T10:45:24.687Z,122.70
2022-12-23T10:51:24.935Z,123.73
2022-12-23T10:57:15.560Z,125.87
2022-12-23T11:01:27.060Z,127.86
2022-12-23T11:14:51.311Z,128.42
2022-12-23T11:27:35.038Z,129.31
2022-12-23T13:10:59.885Z,143.09
2022-12-23T13:21:58.621Z,144.66
2022-12-23T14:17:47.948Z,155.03
2022-12-23T17:33:19.162Z,168.82
2022-12-23T17:52:15.979Z,167.03
2022-12-23T19:32:17.017Z,155.30
2022-12-23T20:22:15.475Z,149.93
2022-12-23T21:12:18.315Z,143.62
